sensor_id;sensor_type;location;lat;lon;timestamp;temperature;humidity
5723;DHT22;2886;49.722;8.612;2023-08-07T00:00:41;13.40;99.90
5723;DHT22;2886;49.722;8.612;2023-08-07T00:03:07;13.40;99.90
5723;DHT22;2886;49.722;8.612;2023-08-07T00:05:32;13.40;99.90
5723;DHT22;2886;49.722;8.612;2023-08-07T00:07:58;13.40;99.90
5723;DHT22;2886;49.722;8.612;2023-08-07T00:10:23;13.40;99.90
5723;DHT22;2886;49.722;8.612;2023-08-07T00:12:50;13.40;99.90
5723;DHT22;2886;49.722;8.612;2023-08-07T00:15:15;13.40;99.90
5723;DHT22;2886;49.722;8.612;2023-08-07T00:17:41;13.30;99.90
5723;DHT22;2886;49.722;8.612;2023-08-07T00:20:07;13.40;99.90
5723;DHT22;2886;49.722;8.612;2023-08-07T00:22:33;13.40;99.90
5723;DHT22;2886;49.722;8.612;2023-08-07T00:24:59;13.30;99.90
5723;DHT22;2886;49.722;8.612;2023-08-07T00:27:24;13.30;99.90
5723;DHT22;2886;49.722;8.612;2023-08-07T00:29:50;13.30;99.90
5723;DHT22;2886;49.722;8.612;2023-08-07T00:32:16;13.40;99.90
5723;DHT22;2886;49.722;8.612;2023-08-07T00:34:41;13.30;99.90
5723;DHT22;2886;49.722;8.612;2023-08-07T00:37:07;13.30;99.90
5723;DHT22;2886;49.722;8.612;2023-08-07T00:39:33;13.30;99.90
5723;DHT22;2886;49.722;8.612;2023-08-07T00:41:59;13.30;99.90
5723;DHT22;2886;49.722;8.612;2023-08-07T00:44:25;13.30;99.90
5723;DHT22;2886;49.722;8.612;2023-08-07T00:46:51;13.30;99.90
5723;DHT22;2886;49.722;8.612;2023-08-07T00:49:17;13.20;99.90
5723;DHT22;2886;49.722;8.612;2023-08-07T00:51:44;13.30;99.90
5723;DHT22;2886;49.722;8.612;2023-08-07T00:54:12;13.30;99.90
5723;DHT22;2886;49.722;8.612;2023-08-07T00:56:39;13.30;99.90
5723;DHT22;2886;49.722;8.612;2023-08-07T00:59:05;13.30;99.90
5723;DHT22;2886;49.722;8.612;2023-08-07T01:01:32;13.30;99.90
5723;DHT22;2886;49.722;8.612;2023-08-07T01:03:58;13.30;99.90
5723;DHT22;2886;49.722;8.612;2023-08-07T01:06:24;13.30;99.90
5723;DHT22;2886;49.722;8.612;2023-08-07T01:08:49;13.30;99.90
5723;DHT22;2886;49.722;8.612;2023-08-07T01:11:36;13.20;99.90
5723;DHT22;2886;49.722;8.612;2023-08-07T01:16:52;13.20;99.90
5723;DHT22;2886;49.722;8.612;2023-08-07T01:19:26;13.20;99.90
5723;DHT22;2886;49.722;8.612;2023-08-07T01:22:24;13.20;99.90
5723;DHT22;2886;49.722;8.612;2023-08-07T01:24:50;13.20;99.90
5723;DHT22;2886;49.722;8.612;2023-08-07T01:32:54;13.20;99.90
5723;DHT22;2886;49.722;8.612;2023-08-07T01:35:23;13.20;99.90
5723;DHT22;2886;49.722;8.612;2023-08-07T01:37:53;13.10;99.90
5723;DHT22;2886;49.722;8.612;2023-08-07T01:40:21;13.10;99.90
5723;DHT22;2886;49.722;8.612;2023-08-07T01:42:47;13.20;99.90
5723;DHT22;2886;49.722;8.612;2023-08-07T01:45:13;13.10;99.90
5723;DHT22;2886;49.722;8.612;2023-08-07T01:47:39;13.20;99.90
5723;DHT22;2886;49.722;8.612;2023-08-07T01:50:05;13.20;99.90
5723;DHT22;2886;49.722;8.612;2023-08-07T01:52:31;13.20;99.90
5723;DHT22;2886;49.722;8.612;2023-08-07T01:54:57;13.10;99.90
5723;DHT22;2886;49.722;8.612;2023-08-07T01:57:22;13.20;99.90
5723;DHT22;2886;49.722;8.612;2023-08-07T01:59:48;13.20;99.90
5723;DHT22;2886;49.722;8.612;2023-08-07T02:02:13;13.20;99.90
5723;DHT22;2886;49.722;8.612;2023-08-07T02:04:39;13.20;99.90
5723;DHT22;2886;49.722;8.612;2023-08-07T02:07:05;13.20;99.90
5723;DHT22;2886;49.722;8.612;2023-08-07T02:09:30;13.10;99.90
5723;DHT22;2886;49.722;8.612;2023-08-07T02:11:56;13.10;99.90
5723;DHT22;2886;49.722;8.612;2023-08-07T02:14:21;13.10;99.90
5723;DHT22;2886;49.722;8.612;2023-08-07T02:16:47;13.20;99.90
5723;DHT22;2886;49.722;8.612;2023-08-07T02:19:13;13.20;99.90
5723;DHT22;2886;49.722;8.612;2023-08-07T02:21:38;13.20;99.90
5723;DHT22;2886;49.722;8.612;2023-08-07T02:24:04;13.20;99.90
5723;DHT22;2886;49.722;8.612;2023-08-07T02:26:30;13.20;99.90
5723;DHT22;2886;49.722;8.612;2023-08-07T02:28:55;13.20;99.90
5723;DHT22;2886;49.722;8.612;2023-08-07T02:31:21;13.20;99.90
5723;DHT22;2886;49.722;8.612;2023-08-07T02:33:46;13.20;99.90
5723;DHT22;2886;49.722;8.612;2023-08-07T02:36:12;13.20;99.90
5723;DHT22;2886;49.722;8.612;2023-08-07T02:38:37;13.20;99.90
5723;DHT22;2886;49.722;8.612;2023-08-07T02:41:03;13.20;99.90
5723;DHT22;2886;49.722;8.612;2023-08-07T02:43:29;13.20;99.90
5723;DHT22;2886;49.722;8.612;2023-08-07T02:45:54;13.20;99.90
5723;DHT22;2886;49.722;8.612;2023-08-07T02:48:20;13.20;99.90
5723;DHT22;2886;49.722;8.612;2023-08-07T02:50:46;13.20;99.90
5723;DHT22;2886;49.722;8.612;2023-08-07T02:53:12;13.20;99.90
5723;DHT22;2886;49.722;8.612;2023-08-07T02:55:37;13.20;99.90
5723;DHT22;2886;49.722;8.612;2023-08-07T02:58:03;13.10;99.90
5723;DHT22;2886;49.722;8.612;2023-08-07T03:00:28;13.20;99.90
5723;DHT22;2886;49.722;8.612;2023-08-07T03:02:54;13.20;99.90
5723;DHT22;2886;49.722;8.612;2023-08-07T03:05:19;13.20;99.90
5723;DHT22;2886;49.722;8.612;2023-08-07T03:07:45;13.20;99.90
5723;DHT22;2886;49.722;8.612;2023-08-07T03:10:11;13.30;99.90
5723;DHT22;2886;49.722;8.612;2023-08-07T03:12:37;13.30;99.90
5723;DHT22;2886;49.722;8.612;2023-08-07T03:15:04;13.30;99.90
5723;DHT22;2886;49.722;8.612;2023-08-07T03:17:30;13.30;99.90
5723;DHT22;2886;49.722;8.612;2023-08-07T03:19:56;13.30;99.90
5723;DHT22;2886;49.722;8.612;2023-08-07T03:22:22;13.30;99.90
5723;DHT22;2886;49.722;8.612;2023-08-07T03:24:48;13.40;99.90
5723;DHT22;2886;49.722;8.612;2023-08-07T03:27:14;13.30;99.90
5723;DHT22;2886;49.722;8.612;2023-08-07T03:29:40;13.40;99.90
5723;DHT22;2886;49.722;8.612;2023-08-07T03:32:05;13.40;99.90
5723;DHT22;2886;49.722;8.612;2023-08-07T03:34:31;13.40;99.90
5723;DHT22;2886;49.722;8.612;2023-08-07T03:36:57;13.40;99.90
5723;DHT22;2886;49.722;8.612;2023-08-07T03:39:25;13.50;99.90
5723;DHT22;2886;49.722;8.612;2023-08-07T03:41:51;13.40;99.90
5723;DHT22;2886;49.722;8.612;2023-08-07T03:44:21;13.40;99.90
5723;DHT22;2886;49.722;8.612;2023-08-07T03:46:47;13.50;99.90
5723;DHT22;2886;49.722;8.612;2023-08-07T03:49:13;13.50;99.90
5723;DHT22;2886;49.722;8.612;2023-08-07T03:51:39;13.40;99.90
5723;DHT22;2886;49.722;8.612;2023-08-07T03:54:04;13.50;99.90
5723;DHT22;2886;49.722;8.612;2023-08-07T03:56:30;13.50;99.90
5723;DHT22;2886;49.722;8.612;2023-08-07T03:59:02;13.50;99.90
5723;DHT22;2886;49.722;8.612;2023-08-07T04:01:27;13.50;99.90
5723;DHT22;2886;49.722;8.612;2023-08-07T04:03:53;13.50;99.90
5723;DHT22;2886;49.722;8.612;2023-08-07T04:06:19;13.60;99.90
5723;DHT22;2886;49.722;8.612;2023-08-07T04:08:46;13.60;99.90
5723;DHT22;2886;49.722;8.612;2023-08-07T04:11:12;13.60;99.90
5723;DHT22;2886;49.722;8.612;2023-08-07T04:13:38;13.60;99.90
5723;DHT22;2886;49.722;8.612;2023-08-07T04:16:04;13.60;99.90
5723;DHT22;2886;49.722;8.612;2023-08-07T04:18:33;13.60;99.90
5723;DHT22;2886;49.722;8.612;2023-08-07T04:20:59;13.60;99.90
5723;DHT22;2886;49.722;8.612;2023-08-07T04:23:24;13.60;99.90
5723;DHT22;2886;49.722;8.612;2023-08-07T04:25:51;13.60;99.90
5723;DHT22;2886;49.722;8.612;2023-08-07T04:28:17;13.60;99.90
5723;DHT22;2886;49.722;8.612;2023-08-07T04:30:44;13.70;99.90
5723;DHT22;2886;49.722;8.612;2023-08-07T04:33:11;13.70;99.90
5723;DHT22;2886;49.722;8.612;2023-08-07T04:35:36;13.70;99.90
5723;DHT22;2886;49.722;8.612;2023-08-07T04:38:02;13.80;99.90
5723;DHT22;2886;49.722;8.612;2023-08-07T04:40:28;13.80;99.90
5723;DHT22;2886;49.722;8.612;2023-08-07T04:42:54;13.70;99.90
5723;DHT22;2886;49.722;8.612;2023-08-07T04:45:20;13.70;99.90
5723;DHT22;2886;49.722;8.612;2023-08-07T04:47:45;13.80;99.90
5723;DHT22;2886;49.722;8.612;2023-08-07T04:50:11;13.70;99.90
5723;DHT22;2886;49.722;8.612;2023-08-07T04:52:37;13.70;99.90
5723;DHT22;2886;49.722;8.612;2023-08-07T04:55:02;13.80;99.90
5723;DHT22;2886;49.722;8.612;2023-08-07T04:57:28;13.80;99.90
5723;DHT22;2886;49.722;8.612;2023-08-07T04:59:53;13.80;99.90
5723;DHT22;2886;49.722;8.612;2023-08-07T05:02:19;13.80;99.90
5723;DHT22;2886;49.722;8.612;2023-08-07T05:04:45;13.90;99.90
5723;DHT22;2886;49.722;8.612;2023-08-07T05:07:11;13.90;99.90
5723;DHT22;2886;49.722;8.612;2023-08-07T05:09:37;14.00;99.90
5723;DHT22;2886;49.722;8.612;2023-08-07T05:12:04;14.00;99.90
5723;DHT22;2886;49.722;8.612;2023-08-07T05:14:30;14.00;99.90
5723;DHT22;2886;49.722;8.612;2023-08-07T05:16:55;14.00;99.90
5723;DHT22;2886;49.722;8.612;2023-08-07T05:19:21;14.00;99.90
5723;DHT22;2886;49.722;8.612;2023-08-07T05:21:47;14.00;99.90
5723;DHT22;2886;49.722;8.612;2023-08-07T05:24:19;14.00;99.90
5723;DHT22;2886;49.722;8.612;2023-08-07T05:26:45;14.00;99.90
5723;DHT22;2886;49.722;8.612;2023-08-07T05:29:11;14.00;99.90
5723;DHT22;2886;49.722;8.612;2023-08-07T05:31:36;14.10;99.90
5723;DHT22;2886;49.722;8.612;2023-08-07T05:34:02;14.00;99.90
5723;DHT22;2886;49.722;8.612;2023-08-07T05:36:29;14.00;99.90
5723;DHT22;2886;49.722;8.612;2023-08-07T05:38:57;14.00;99.90
5723;DHT22;2886;49.722;8.612;2023-08-07T05:41:22;14.00;99.90
5723;DHT22;2886;49.722;8.612;2023-08-07T05:43:48;14.10;99.90
5723;DHT22;2886;49.722;8.612;2023-08-07T05:46:13;14.00;99.90
5723;DHT22;2886;49.722;8.612;2023-08-07T05:48:39;14.10;99.90
5723;DHT22;2886;49.722;8.612;2023-08-07T05:51:05;14.10;99.90
5723;DHT22;2886;49.722;8.612;2023-08-07T05:53:32;14.10;99.90
5723;DHT22;2886;49.722;8.612;2023-08-07T05:55:58;14.10;99.90
5723;DHT22;2886;49.722;8.612;2023-08-07T05:58:23;14.10;99.90
5723;DHT22;2886;49.722;8.612;2023-08-07T06:00:49;14.10;99.90
5723;DHT22;2886;49.722;8.612;2023-08-07T06:03:14;14.10;99.90
5723;DHT22;2886;49.722;8.612;2023-08-07T06:05:40;14.10;99.90
5723;DHT22;2886;49.722;8.612;2023-08-07T06:08:05;14.10;99.90
5723;DHT22;2886;49.722;8.612;2023-08-07T06:10:31;14.10;99.90
5723;DHT22;2886;49.722;8.612;2023-08-07T06:12:57;14.10;99.90
5723;DHT22;2886;49.722;8.612;2023-08-07T06:15:22;14.10;99.90
5723;DHT22;2886;49.722;8.612;2023-08-07T06:17:48;14.10;99.90
5723;DHT22;2886;49.722;8.612;2023-08-07T06:20:16;14.00;99.90
5723;DHT22;2886;49.722;8.612;2023-08-07T06:22:41;13.90;99.90
5723;DHT22;2886;49.722;8.612;2023-08-07T06:25:07;13.90;99.90
5723;DHT22;2886;49.722;8.612;2023-08-07T06:27:33;13.80;99.90
5723;DHT22;2886;49.722;8.612;2023-08-07T06:29:59;13.80;99.90
5723;DHT22;2886;49.722;8.612;2023-08-07T06:32:25;13.80;99.90
5723;DHT22;2886;49.722;8.612;2023-08-07T06:34:52;13.80;99.90
5723;DHT22;2886;49.722;8.612;2023-08-07T06:37:18;13.80;99.90
5723;DHT22;2886;49.722;8.612;2023-08-07T06:39:43;13.70;99.90
5723;DHT22;2886;49.722;8.612;2023-08-07T06:42:10;13.80;99.90
5723;DHT22;2886;49.722;8.612;2023-08-07T06:44:35;13.70;99.90
5723;DHT22;2886;49.722;8.612;2023-08-07T06:47:01;13.70;99.90
5723;DHT22;2886;49.722;8.612;2023-08-07T06:49:26;13.70;99.90
5723;DHT22;2886;49.722;8.612;2023-08-07T06:51:52;13.80;99.90
5723;DHT22;2886;49.722;8.612;2023-08-07T06:54:18;13.80;99.90
5723;DHT22;2886;49.722;8.612;2023-08-07T06:56:43;13.80;99.90
5723;DHT22;2886;49.722;8.612;2023-08-07T06:59:10;13.90;99.90
5723;DHT22;2886;49.722;8.612;2023-08-07T07:01:35;13.90;99.90
5723;DHT22;2886;49.722;8.612;2023-08-07T07:04:01;13.90;99.90
5723;DHT22;2886;49.722;8.612;2023-08-07T07:06:27;13.90;99.90
5723;DHT22;2886;49.722;8.612;2023-08-07T07:08:52;14.00;99.90
5723;DHT22;2886;49.722;8.612;2023-08-07T07:11:20;14.00;99.90
5723;DHT22;2886;49.722;8.612;2023-08-07T07:13:48;14.00;99.90
5723;DHT22;2886;49.722;8.612;2023-08-07T07:16:14;14.00;99.90
5723;DHT22;2886;49.722;8.612;2023-08-07T07:18:40;14.00;99.90
5723;DHT22;2886;49.722;8.612;2023-08-07T07:21:06;14.10;99.90
5723;DHT22;2886;49.722;8.612;2023-08-07T07:23:31;14.00;99.90
5723;DHT22;2886;49.722;8.612;2023-08-07T07:25:57;14.10;99.90
5723;DHT22;2886;49.722;8.612;2023-08-07T07:28:23;14.10;99.90
5723;DHT22;2886;49.722;8.612;2023-08-07T07:30:51;14.10;99.90
5723;DHT22;2886;49.722;8.612;2023-08-07T07:33:18;14.20;99.90
5723;DHT22;2886;49.722;8.612;2023-08-07T07:35:43;14.20;99.90
5723;DHT22;2886;49.722;8.612;2023-08-07T07:38:10;14.20;99.90
5723;DHT22;2886;49.722;8.612;2023-08-07T07:40:36;14.20;99.90
5723;DHT22;2886;49.722;8.612;2023-08-07T07:43:02;14.20;99.90
5723;DHT22;2886;49.722;8.612;2023-08-07T07:45:28;14.20;99.90
5723;DHT22;2886;49.722;8.612;2023-08-07T07:47:55;14.10;99.90
5723;DHT22;2886;49.722;8.612;2023-08-07T07:50:21;14.10;99.90
5723;DHT22;2886;49.722;8.612;2023-08-07T07:52:46;14.10;99.90
5723;DHT22;2886;49.722;8.612;2023-08-07T07:55:13;14.10;99.90
5723;DHT22;2886;49.722;8.612;2023-08-07T07:57:39;14.10;99.90
5723;DHT22;2886;49.722;8.612;2023-08-07T08:00:06;14.20;99.90
5723;DHT22;2886;49.722;8.612;2023-08-07T08:02:45;14.20;99.90
5723;DHT22;2886;49.722;8.612;2023-08-07T08:05:11;14.30;99.90
5723;DHT22;2886;49.722;8.612;2023-08-07T08:07:38;14.30;99.90
5723;DHT22;2886;49.722;8.612;2023-08-07T08:10:08;14.30;99.90
5723;DHT22;2886;49.722;8.612;2023-08-07T08:12:35;14.30;99.90
5723;DHT22;2886;49.722;8.612;2023-08-07T08:15:01;14.30;99.90
5723;DHT22;2886;49.722;8.612;2023-08-07T08:17:27;14.30;99.90
5723;DHT22;2886;49.722;8.612;2023-08-07T08:19:52;14.20;99.90
5723;DHT22;2886;49.722;8.612;2023-08-07T08:22:18;14.30;99.90
5723;DHT22;2886;49.722;8.612;2023-08-07T08:24:44;14.30;99.90
5723;DHT22;2886;49.722;8.612;2023-08-07T08:27:10;14.20;99.90
5723;DHT22;2886;49.722;8.612;2023-08-07T08:29:35;14.30;99.90
5723;DHT22;2886;49.722;8.612;2023-08-07T08:32:01;14.30;99.90
5723;DHT22;2886;49.722;8.612;2023-08-07T08:34:27;14.40;99.90
5723;DHT22;2886;49.722;8.612;2023-08-07T08:36:53;14.40;99.90
5723;DHT22;2886;49.722;8.612;2023-08-07T08:39:18;14.50;99.90
5723;DHT22;2886;49.722;8.612;2023-08-07T08:41:46;14.40;99.90
5723;DHT22;2886;49.722;8.612;2023-08-07T08:44:14;14.50;99.90
5723;DHT22;2886;49.722;8.612;2023-08-07T08:46:42;14.50;99.90
5723;DHT22;2886;49.722;8.612;2023-08-07T08:49:08;14.50;99.90
5723;DHT22;2886;49.722;8.612;2023-08-07T08:51:36;14.60;99.90
5723;DHT22;2886;49.722;8.612;2023-08-07T08:54:03;14.50;99.90
5723;DHT22;2886;49.722;8.612;2023-08-07T08:56:29;14.50;99.90
5723;DHT22;2886;49.722;8.612;2023-08-07T08:58:56;14.50;99.90
5723;DHT22;2886;49.722;8.612;2023-08-07T09:01:21;14.60;99.90
5723;DHT22;2886;49.722;8.612;2023-08-07T09:03:49;14.60;99.90
5723;DHT22;2886;49.722;8.612;2023-08-07T09:06:15;14.60;99.90
5723;DHT22;2886;49.722;8.612;2023-08-07T09:08:42;14.60;99.90
5723;DHT22;2886;49.722;8.612;2023-08-07T09:11:08;14.50;99.90
5723;DHT22;2886;49.722;8.612;2023-08-07T09:13:36;14.60;99.90
5723;DHT22;2886;49.722;8.612;2023-08-07T09:16:04;14.60;99.90
5723;DHT22;2886;49.722;8.612;2023-08-07T09:18:33;14.50;99.90
5723;DHT22;2886;49.722;8.612;2023-08-07T09:21:00;14.50;99.90
5723;DHT22;2886;49.722;8.612;2023-08-07T09:23:25;14.50;99.90
5723;DHT22;2886;49.722;8.612;2023-08-07T09:26:04;14.60;99.90
5723;DHT22;2886;49.722;8.612;2023-08-07T09:28:32;14.60;99.90
5723;DHT22;2886;49.722;8.612;2023-08-07T09:30:58;14.60;99.90
5723;DHT22;2886;49.722;8.612;2023-08-07T09:33:25;14.60;99.90
5723;DHT22;2886;49.722;8.612;2023-08-07T09:35:58;14.70;99.90
5723;DHT22;2886;49.722;8.612;2023-08-07T09:38:27;14.70;99.90
5723;DHT22;2886;49.722;8.612;2023-08-07T09:40:57;14.80;99.90
5723;DHT22;2886;49.722;8.612;2023-08-07T09:43:24;14.80;99.90
5723;DHT22;2886;49.722;8.612;2023-08-07T09:45:49;14.90;99.90
5723;DHT22;2886;49.722;8.612;2023-08-07T09:48:24;15.00;99.90
5723;DHT22;2886;49.722;8.612;2023-08-07T09:50:50;15.00;99.90
5723;DHT22;2886;49.722;8.612;2023-08-07T09:53:16;15.10;99.90
5723;DHT22;2886;49.722;8.612;2023-08-07T09:55:42;15.10;99.90
5723;DHT22;2886;49.722;8.612;2023-08-07T09:58:12;15.20;99.90
5723;DHT22;2886;49.722;8.612;2023-08-07T10:00:40;15.20;99.90
5723;DHT22;2886;49.722;8.612;2023-08-07T10:03:05;15.30;99.90
5723;DHT22;2886;49.722;8.612;2023-08-07T10:05:31;15.30;99.90
5723;DHT22;2886;49.722;8.612;2023-08-07T10:07:57;15.40;99.90
5723;DHT22;2886;49.722;8.612;2023-08-07T10:10:24;15.40;99.90
5723;DHT22;2886;49.722;8.612;2023-08-07T10:12:52;15.40;99.90
5723;DHT22;2886;49.722;8.612;2023-08-07T10:15:18;15.30;99.90
5723;DHT22;2886;49.722;8.612;2023-08-07T10:17:44;15.20;99.90
5723;DHT22;2886;49.722;8.612;2023-08-07T10:20:11;14.90;99.90
5723;DHT22;2886;49.722;8.612;2023-08-07T10:22:38;14.90;99.90
5723;DHT22;2886;49.722;8.612;2023-08-07T10:25:06;14.90;99.90
5723;DHT22;2886;49.722;8.612;2023-08-07T10:27:34;14.80;99.90
5723;DHT22;2886;49.722;8.612;2023-08-07T10:30:02;14.80;99.90
5723;DHT22;2886;49.722;8.612;2023-08-07T10:32:30;14.80;99.90
5723;DHT22;2886;49.722;8.612;2023-08-07T10:34:56;14.70;99.90
5723;DHT22;2886;49.722;8.612;2023-08-07T10:40:04;14.70;99.90
5723;DHT22;2886;49.722;8.612;2023-08-07T10:45:26;14.50;99.90
5723;DHT22;2886;49.722;8.612;2023-08-07T10:50:34;14.40;99.90
5723;DHT22;2886;49.722;8.612;2023-08-07T10:53:04;14.50;99.90
5723;DHT22;2886;49.722;8.612;2023-08-07T10:55:49;14.60;99.90
5723;DHT22;2886;49.722;8.612;2023-08-07T10:58:25;14.70;99.90
5723;DHT22;2886;49.722;8.612;2023-08-07T11:03:53;14.70;99.90
5723;DHT22;2886;49.722;8.612;2023-08-07T11:06:27;14.70;99.90
5723;DHT22;2886;49.722;8.612;2023-08-07T11:08:54;14.80;99.90
5723;DHT22;2886;49.722;8.612;2023-08-07T11:11:20;14.80;99.90
5723;DHT22;2886;49.722;8.612;2023-08-07T11:13:46;14.80;99.90
5723;DHT22;2886;49.722;8.612;2023-08-07T11:16:12;14.90;99.90
5723;DHT22;2886;49.722;8.612;2023-08-07T11:18:38;14.90;99.90
5723;DHT22;2886;49.722;8.612;2023-08-07T11:21:10;15.00;99.90
5723;DHT22;2886;49.722;8.612;2023-08-07T11:23:37;15.10;99.90
5723;DHT22;2886;49.722;8.612;2023-08-07T11:26:03;15.20;99.90
5723;DHT22;2886;49.722;8.612;2023-08-07T11:28:28;15.30;99.90
5723;DHT22;2886;49.722;8.612;2023-08-07T11:30:54;15.40;99.90
5723;DHT22;2886;49.722;8.612;2023-08-07T11:33:25;15.30;99.90
5723;DHT22;2886;49.722;8.612;2023-08-07T11:35:51;15.30;99.90
5723;DHT22;2886;49.722;8.612;2023-08-07T11:38:34;15.30;99.90
5723;DHT22;2886;49.722;8.612;2023-08-07T11:41:02;15.20;99.90
5723;DHT22;2886;49.722;8.612;2023-08-07T11:43:32;15.30;99.90
5723;DHT22;2886;49.722;8.612;2023-08-07T11:45:59;15.40;99.90
5723;DHT22;2886;49.722;8.612;2023-08-07T11:48:29;15.40;99.90
5723;DHT22;2886;49.722;8.612;2023-08-07T11:50:57;15.50;99.90
5723;DHT22;2886;49.722;8.612;2023-08-07T11:53:25;15.50;99.90
5723;DHT22;2886;49.722;8.612;2023-08-07T11:56:00;15.60;99.90
5723;DHT22;2886;49.722;8.612;2023-08-07T11:58:32;15.60;99.90
5723;DHT22;2886;49.722;8.612;2023-08-07T12:00:59;15.60;99.90
5723;DHT22;2886;49.722;8.612;2023-08-07T12:03:30;15.50;99.90
5723;DHT22;2886;49.722;8.612;2023-08-07T12:05:57;15.80;99.90
5723;DHT22;2886;49.722;8.612;2023-08-07T12:08:24;16.00;99.90
5723;DHT22;2886;49.722;8.612;2023-08-07T12:10:56;16.00;99.90
5723;DHT22;2886;49.722;8.612;2023-08-07T12:13:24;15.80;99.90
5723;DHT22;2886;49.722;8.612;2023-08-07T12:15:55;15.50;99.90
5723;DHT22;2886;49.722;8.612;2023-08-07T12:18:21;15.60;99.90
5723;DHT22;2886;49.722;8.612;2023-08-07T12:20:50;15.50;99.90
5723;DHT22;2886;49.722;8.612;2023-08-07T12:23:16;15.40;99.90
5723;DHT22;2886;49.722;8.612;2023-08-07T12:25:43;15.30;99.90
5723;DHT22;2886;49.722;8.612;2023-08-07T12:28:08;15.20;99.90
5723;DHT22;2886;49.722;8.612;2023-08-07T12:30:35;15.20;99.90
5723;DHT22;2886;49.722;8.612;2023-08-07T12:33:00;15.30;99.90
5723;DHT22;2886;49.722;8.612;2023-08-07T12:35:28;15.20;99.90
5723;DHT22;2886;49.722;8.612;2023-08-07T12:37:53;15.20;99.90
5723;DHT22;2886;49.722;8.612;2023-08-07T12:40:19;15.30;99.90
5723;DHT22;2886;49.722;8.612;2023-08-07T12:42:46;15.40;99.90
5723;DHT22;2886;49.722;8.612;2023-08-07T12:45:13;15.40;99.90
5723;DHT22;2886;49.722;8.612;2023-08-07T12:47:41;15.50;99.90
5723;DHT22;2886;49.722;8.612;2023-08-07T12:50:07;15.60;99.90
5723;DHT22;2886;49.722;8.612;2023-08-07T12:52:34;15.70;99.90
5723;DHT22;2886;49.722;8.612;2023-08-07T12:54:59;15.80;99.90
5723;DHT22;2886;49.722;8.612;2023-08-07T12:57:26;15.90;99.90
5723;DHT22;2886;49.722;8.612;2023-08-07T12:59:51;16.00;99.90
5723;DHT22;2886;49.722;8.612;2023-08-07T13:02:17;16.20;99.90
5723;DHT22;2886;49.722;8.612;2023-08-07T13:04:42;16.40;99.90
5723;DHT22;2886;49.722;8.612;2023-08-07T13:07:08;16.60;99.90
5723;DHT22;2886;49.722;8.612;2023-08-07T13:09:34;16.90;99.90
5723;DHT22;2886;49.722;8.612;2023-08-07T13:11:59;17.10;99.90
5723;DHT22;2886;49.722;8.612;2023-08-07T13:14:25;17.30;99.90
5723;DHT22;2886;49.722;8.612;2023-08-07T13:16:50;17.50;99.90
5723;DHT22;2886;49.722;8.612;2023-08-07T13:19:16;17.60;99.90
5723;DHT22;2886;49.722;8.612;2023-08-07T13:21:42;17.70;99.90
5723;DHT22;2886;49.722;8.612;2023-08-07T13:24:08;17.70;99.90
5723;DHT22;2886;49.722;8.612;2023-08-07T13:26:33;17.60;99.90
5723;DHT22;2886;49.722;8.612;2023-08-07T13:28:59;17.70;99.90
5723;DHT22;2886;49.722;8.612;2023-08-07T13:31:25;18.00;99.90
5723;DHT22;2886;49.722;8.612;2023-08-07T13:33:50;18.30;99.90
5723;DHT22;2886;49.722;8.612;2023-08-07T13:36:16;18.50;99.90
5723;DHT22;2886;49.722;8.612;2023-08-07T13:38:41;18.70;99.90
5723;DHT22;2886;49.722;8.612;2023-08-07T13:41:07;18.70;99.90
5723;DHT22;2886;49.722;8.612;2023-08-07T13:43:33;18.70;99.90
5723;DHT22;2886;49.722;8.612;2023-08-07T13:45:58;18.40;99.90
5723;DHT22;2886;49.722;8.612;2023-08-07T13:48:24;18.20;99.90
5723;DHT22;2886;49.722;8.612;2023-08-07T13:50:52;18.30;99.90
5723;DHT22;2886;49.722;8.612;2023-08-07T13:53:18;18.30;99.90
5723;DHT22;2886;49.722;8.612;2023-08-07T13:55:45;18.50;99.90
5723;DHT22;2886;49.722;8.612;2023-08-07T13:58:12;18.60;99.90
5723;DHT22;2886;49.722;8.612;2023-08-07T14:00:40;18.70;99.90
5723;DHT22;2886;49.722;8.612;2023-08-07T14:03:08;18.90;99.90
5723;DHT22;2886;49.722;8.612;2023-08-07T14:05:34;19.10;99.90
5723;DHT22;2886;49.722;8.612;2023-08-07T14:07:59;19.30;99.90
5723;DHT22;2886;49.722;8.612;2023-08-07T14:10:26;19.50;97.70
5723;DHT22;2886;49.722;8.612;2023-08-07T14:12:51;19.60;96.90
5723;DHT22;2886;49.722;8.612;2023-08-07T14:15:18;19.70;95.30
5723;DHT22;2886;49.722;8.612;2023-08-07T14:17:43;19.80;95.70
5723;DHT22;2886;49.722;8.612;2023-08-07T14:20:09;19.90;95.10
5723;DHT22;2886;49.722;8.612;2023-08-07T14:22:36;20.00;95.70
5723;DHT22;2886;49.722;8.612;2023-08-07T14:25:04;20.00;96.10
5723;DHT22;2886;49.722;8.612;2023-08-07T14:27:30;19.80;96.80
5723;DHT22;2886;49.722;8.612;2023-08-07T14:29:56;19.50;98.20
5723;DHT22;2886;49.722;8.612;2023-08-07T14:32:22;19.30;98.90
5723;DHT22;2886;49.722;8.612;2023-08-07T14:34:48;19.50;98.90
5723;DHT22;2886;49.722;8.612;2023-08-07T14:37:15;19.60;95.80
5723;DHT22;2886;49.722;8.612;2023-08-07T14:39:41;19.90;97.00
5723;DHT22;2886;49.722;8.612;2023-08-07T14:42:06;20.00;95.10
5723;DHT22;2886;49.722;8.612;2023-08-07T14:44:32;20.00;95.30
5723;DHT22;2886;49.722;8.612;2023-08-07T14:46:58;20.10;95.70
5723;DHT22;2886;49.722;8.612;2023-08-07T14:49:24;19.90;95.30
5723;DHT22;2886;49.722;8.612;2023-08-07T14:51:51;19.80;94.30
5723;DHT22;2886;49.722;8.612;2023-08-07T14:54:16;19.90;93.80
5723;DHT22;2886;49.722;8.612;2023-08-07T14:56:42;19.90;93.80
5723;DHT22;2886;49.722;8.612;2023-08-07T14:59:07;19.80;95.10
5723;DHT22;2886;49.722;8.612;2023-08-07T15:01:33;19.80;93.30
5723;DHT22;2886;49.722;8.612;2023-08-07T15:03:58;19.70;94.10
5723;DHT22;2886;49.722;8.612;2023-08-07T15:06:24;19.80;93.90
5723;DHT22;2886;49.722;8.612;2023-08-07T15:08:50;19.90;91.80
5723;DHT22;2886;49.722;8.612;2023-08-07T15:11:16;19.90;90.80
5723;DHT22;2886;49.722;8.612;2023-08-07T15:13:42;19.80;90.30
5723;DHT22;2886;49.722;8.612;2023-08-07T15:16:07;19.80;92.80
5723;DHT22;2886;49.722;8.612;2023-08-07T15:18:33;19.80;93.20
5723;DHT22;2886;49.722;8.612;2023-08-07T15:20:59;20.10;90.80
5723;DHT22;2886;49.722;8.612;2023-08-07T15:23:27;20.40;85.80
5723;DHT22;2886;49.722;8.612;2023-08-07T15:25:53;20.70;86.40
5723;DHT22;2886;49.722;8.612;2023-08-07T15:28:19;21.10;76.50
5723;DHT22;2886;49.722;8.612;2023-08-07T15:30:48;21.40;73.20
5723;DHT22;2886;49.722;8.612;2023-08-07T15:33:17;21.60;72.50
5723;DHT22;2886;49.722;8.612;2023-08-07T15:35:44;21.80;66.00
5723;DHT22;2886;49.722;8.612;2023-08-07T15:38:10;21.60;68.00
5723;DHT22;2886;49.722;8.612;2023-08-07T15:40:40;21.50;72.10
5723;DHT22;2886;49.722;8.612;2023-08-07T15:43:07;21.30;57.20
5723;DHT22;2886;49.722;8.612;2023-08-07T15:45:32;21.20;54.90
5723;DHT22;2886;49.722;8.612;2023-08-07T15:47:58;21.20;56.70
5723;DHT22;2886;49.722;8.612;2023-08-07T15:50:24;21.50;51.90
5723;DHT22;2886;49.722;8.612;2023-08-07T15:52:50;21.40;50.50
5723;DHT22;2886;49.722;8.612;2023-08-07T15:55:15;21.40;51.20
5723;DHT22;2886;49.722;8.612;2023-08-07T15:57:41;21.20;49.90
5723;DHT22;2886;49.722;8.612;2023-08-07T16:00:07;21.30;52.60
5723;DHT22;2886;49.722;8.612;2023-08-07T16:02:34;21.40;51.60
5723;DHT22;2886;49.722;8.612;2023-08-07T16:04:59;21.30;51.30
5723;DHT22;2886;49.722;8.612;2023-08-07T16:07:25;21.30;51.60
5723;DHT22;2886;49.722;8.612;2023-08-07T16:09:52;21.20;53.40
5723;DHT22;2886;49.722;8.612;2023-08-07T16:12:18;21.30;48.50
5723;DHT22;2886;49.722;8.612;2023-08-07T16:14:44;21.20;50.20
5723;DHT22;2886;49.722;8.612;2023-08-07T16:17:10;21.20;49.80